createdAt,value
2022-09-09T00:02:11.620Z,79.28
2022-09-09T00:12:17.306Z,79.25
2022-09-09T00:22:27.601Z,79.44
2022-09-09T00:32:35.245Z,79.34
2022-09-09T00:42:47.251Z,79.53
2022-09-09T00:52:59.145Z,79.54
2022-09-09T01:03:20.626Z,79.84
2022-09-09T01:13:32.103Z,79.77
2022-09-09T01:23:47.530Z,80.13
2022-09-09T01:33:54.720Z,80.21
2022-09-09T01:44:02.190Z,80.24
2022-09-09T01:54:10.244Z,80.43
2022-09-09T02:04:25.494Z,80.59
2022-09-09T02:14:38.791Z,80.64
2022-09-09T02:24:46.185Z,80.81
2022-09-09T02:34:58.751Z,80.83
2022-09-09T02:45:04.481Z,80.75
2022-09-09T02:55:13.651Z,80.71
2022-09-09T03:05:19.444Z,80.83
2022-09-09T03:15:30.577Z,80.58
2022-09-09T03:25:37.246Z,80.74
2022-09-09T03:35:50.109Z,80.53
2022-09-09T03:45:57.521Z,80.86
2022-09-09T03:56:03.362Z,80.91
2022-09-09T04:06:13.611Z,81.04
2022-09-09T04:16:21.335Z,81.10
2022-09-09T04:26:29.053Z,81.16
2022-09-09T04:36:33.597Z,81.21
2022-09-09T04:46:42.352Z,81.25
2022-09-09T04:56:49.623Z,81.33
2022-09-09T05:06:56.728Z,80.97
2022-09-09T05:17:03.758Z,81.19
2022-09-09T05:27:13.375Z,81.02
2022-09-09T05:37:20.024Z,80.55
2022-09-09T05:47:27.506Z,80.33
2022-09-09T05:57:35.328Z,79.94
2022-09-09T06:07:43.878Z,78.51
2022-09-09T06:17:55.996Z,77.58
2022-09-09T06:28:03.468Z,76.29
2022-09-09T06:38:11.009Z,75.11
2022-09-09T06:48:18.046Z,73.74
2022-09-09T06:58:25.040Z,72.24
2022-09-09T07:08:31.608Z,71.22
2022-09-09T07:18:39.384Z,70.67
2022-09-09T07:28:46.913Z,69.53
2022-09-09T07:38:56.840Z,68.64
2022-09-09T07:49:04.811Z,68.04
2022-09-09T07:59:13.189Z,68.26
2022-09-09T08:09:21.063Z,67.79
2022-09-09T08:19:30.440Z,67.07
2022-09-09T08:29:39.051Z,66.82
2022-09-09T08:39:46.127Z,65.48
2022-09-09T08:49:52.005Z,64.69
2022-09-09T08:59:58.784Z,64.25
2022-09-09T09:10:09.103Z,64.02
2022-09-09T09:20:25.471Z,63.29
2022-09-09T09:30:31.215Z,63.03
2022-09-09T09:40:38.707Z,62.43
2022-09-09T09:50:49.016Z,62.06
2022-09-09T10:00:57.116Z,60.88
2022-09-09T10:11:08.302Z,61.05
2022-09-09T10:21:22.976Z,61.41
2022-09-09T10:31:36.379Z,61.28
2022-09-09T10:41:52.249Z,61.01
2022-09-09T10:51:57.999Z,60.45
2022-09-09T11:02:13.837Z,59.79
2022-09-09T11:12:23.239Z,59.24
2022-09-09T11:22:31.624Z,59.21
2022-09-09T11:33:09.975Z,59.36
2022-09-09T11:43:17.532Z,58.29
2022-09-09T11:53:24.033Z,58.14
2022-09-09T12:03:41.817Z,57.95
2022-09-09T12:13:54.951Z,57.44
2022-09-09T12:24:09.585Z,57.35
2022-09-09T12:34:17.430Z,56.75
2022-09-09T12:44:25.202Z,56.34
2022-09-09T12:54:32.411Z,56.13
2022-09-09T13:04:39.633Z,56.27
2022-09-09T13:14:44.719Z,56.12
2022-09-09T13:25:04.726Z,56.05
2022-09-09T13:35:24.421Z,56.22
2022-09-09T13:45:31.932Z,56.07
2022-09-09T13:55:39.678Z,55.72
2022-09-09T14:05:48.146Z,55.40
2022-09-09T14:15:52.066Z,55.22
2022-09-09T14:25:59.295Z,55.20
2022-09-09T14:36:04.674Z,55.17
2022-09-09T14:46:13.712Z,55.07
2022-09-09T14:56:22.461Z,55.36
2022-09-09T15:06:32.858Z,55.70
2022-09-09T15:16:41.594Z,56.09
2022-09-09T15:26:48.681Z,55.92
2022-09-09T15:36:55.402Z,55.66
2022-09-09T15:47:02.381Z,55.76
2022-09-09T15:57:10.525Z,56.69
2022-09-09T16:07:17.495Z,57.36
2022-09-09T16:17:24.016Z,58.46
2022-09-09T16:27:31.650Z,58.73
2022-09-09T16:37:37.461Z,59.30
2022-09-09T16:47:45.345Z,60.01
2022-09-09T16:57:52.862Z,60.88
2022-09-09T17:07:58.680Z,61.63
2022-09-09T17:18:06.347Z,62.57
2022-09-09T17:28:13.820Z,63.60
2022-09-09T17:38:20.105Z,64.52
2022-09-09T17:48:28.530Z,65.08
2022-09-09T17:58:34.185Z,65.43
2022-09-09T18:08:41.631Z,66.35
2022-09-09T18:18:49.826Z,66.62
2022-09-09T18:28:59.617Z,67.17
2022-09-09T18:39:08.948Z,67.75
2022-09-09T18:49:17.084Z,68.35
2022-09-09T18:59:25.765Z,68.80
2022-09-09T19:09:34.324Z,68.88
2022-09-09T19:19:41.254Z,69.31
2022-09-09T19:29:48.552Z,69.76
2022-09-09T19:39:55.944Z,69.92
2022-09-09T19:50:05.926Z,70.34
2022-09-09T20:00:15.054Z,70.18
2022-09-09T20:10:23.667Z,70.62
2022-09-09T20:20:30.670Z,70.99
2022-09-09T20:30:37.365Z,71.38
2022-09-09T20:40:44.453Z,71.74
2022-09-09T20:50:51.602Z,71.97
2022-09-09T21:01:00.566Z,72.23
2022-09-09T21:11:07.179Z,72.98
2022-09-09T21:21:15.392Z,73.23
2022-09-09T21:31:27.469Z,73.41
2022-09-09T21:41:36.709Z,73.72
2022-09-09T21:51:43.946Z,73.44
2022-09-09T22:01:51.526Z,73.59
2022-09-09T22:11:58.274Z,74.40
2022-09-09T22:22:05.262Z,74.27
2022-09-09T22:32:12.857Z,74.65
2022-09-09T22:42:20.143Z,74.76
2022-09-09T22:52:27.520Z,74.99
2022-09-09T23:02:38.707Z,75.37
2022-09-09T23:12:49.489Z,75.12
2022-09-09T23:22:54.309Z,75.09
2022-09-09T23:33:01.859Z,75.31
2022-09-09T23:43:08.918Z,75.41
2022-09-09T23:53:16.136Z,75.47
